Flight Track Log - Related Links

Times and Time Zones

All times are in EDT time to prevent confusion due to time zone crossing. See the THY51 flight status page for this flight to view local times or setup timezone preferences in your user account.

Time Position Orientation Groundspeed Altitude Reporting Facility
EDT Latitude Longitude Course Direction KTS MPH feet Rate Location/Type
10:58PM 35.7390 140.3940 149° Southeast 190 219 900  Level FlightAware
10:59PM 35.7170 140.4100 149° Southeast 188 216 2,200 2,133 Climbing FlightAware
10:59PM 35.7060 140.4170 153° Southeast 194 223 2,500 1,950 Climbing FlightAware
10:59PM 35.6850 140.4330 148° Southeast 197 227 3,500 2,000 Climbing FlightAware
10:59PM 35.6810 140.4350 158° South 203 234 3,500 600 Level FlightAware
11:00PM 35.6610 140.4510 147° Southeast 235 270 3,800 1,080 Climbing FlightAware
11:00PM 35.6350 140.4690 151° Southeast 256 295 4,400 1,855 Climbing FlightAware
11:01PM 35.6030 140.4920 150° Southeast 269 310 5,500 2,133 Climbing FlightAware
11:01PM 35.5890 140.5020 150° Southeast 271 312 6,000 2,057 Climbing FlightAware
11:01PM 35.5660 140.5120 161° South 273 314 6,700 2,291 Climbing FlightAware
11:02PM 35.5430 140.5070 190° South 7,400 2,400 Climbing FlightAware
11:02PM 35.5270 140.4880 224° Southwest 268 308 8,100 2,250 Climbing FlightAware
11:02PM 35.5190 140.4580 252° West 266 306 8,900 2,073 Climbing FlightAware
11:03PM 35.5320 140.4180 292° West 271 312 10,000 2,133 Climbing FlightAware
11:03PM 35.5500 140.4040 328° Northwest 276 318 10,500 1,418 Climbing FlightAware
11:04PM 35.6000 140.3740 334° Northwest 323 372 11,300 1,482 Climbing FlightAware
11:05PM 35.6660 140.3350 334° Northwest 359 413 12,600 1,200 Climbing FlightAware
11:05PM 35.7250 140.2990 334° Northwest 365 420 13,000 300 Climbing FlightAware
11:06PM 35.7900 140.2620 335° Northwest 365 420 13,000 565 Level FlightAware
11:07PM 35.8640 140.2350 344° North 373 429 13,800 1,412 Climbing FlightAware
11:07PM 35.9320 140.2110 344° North 385 443 15,000 847 Climbing FlightAware
11:08PM 36.0140 140.1820 344° North 390 449 15,000 424 Level FlightAware
11:09PM 36.0720 140.1360 327° Northwest 381 438 15,600 1,950 Climbing FlightAware
11:09PM 36.1210 140.0700 313° West 385 443 17,600 2,400 Climbing FlightAware
11:10PM 36.1750 139.9960 312° West 389 448 19,000 988 Climbing FlightAware
11:11PM 36.2240 139.9280 312° West 395 455 19,000 494 Level FlightAware
11:12PM 36.2800 139.8510 312° West 395 455 19,700 1,412 Climbing FlightAware
11:12PM 36.3310 139.7830 313° West 398 458 21,000 975 Climbing FlightAware
11:13PM 36.3830 139.7150 314° West 400 460 21,000  Level FlightAware
11:14PM 36.4560 139.6750 336° Northwest 422 486 21,000 635 Level FlightAware
11:14PM 36.5310 139.6480 344° North 419 482 21,900 1,500 Climbing FlightAware
11:15PM 36.6110 139.6190 344° North 435 501 23,000 776 Climbing FlightAware
11:16PM 36.6950 139.5880 344° North 435 501 23,000  Level FlightAware
11:16PM 36.7870 139.5540 344° North 424 488 23,000  Level FlightAware
11:17PM 36.8650 139.5250 343° North 422 486 23,000  Level FlightAware
11:18PM 36.9410 139.4970 344° North 424 488 23,000  Level FlightAware
11:19PM 37.0290 139.4640 343° North 435 501 23,000  Level FlightAware
11:19PM 37.1060 139.4360 344° North 438 504 23,000  Level FlightAware
11:20PM 37.1790 139.4080 343° North 439 505 23,000  Level FlightAware
11:20PM 37.2500 139.3820 344° North 438 504 23,000 1,125 Level FlightAware
11:21PM 37.3450 139.3460 343° North 446 513 24,500 1,980 Climbing FlightAware
11:22PM 37.4520 139.3060 343° North 456 525 26,300 1,930 Climbing FlightAware
11:23PM 37.5780 139.2590 344° North 467 537 28,200 1,740 Climbing FlightAware
11:24PM 37.6610 139.2280 344° North 474 545 29,200 1,350 Climbing FlightAware
11:24PM 37.7480 139.1950 343° North 479 551 30,000 600 Climbing FlightAware
11:25PM 37.8310 139.1630 343° North 474 545 30,000  Level FlightAware
11:26PM 37.9810 139.0880 338° Northwest 468 539 30,000  Level FlightAware
11:27PM 38.0590 139.0090 321° Northwest 465 535 30,000  Level FlightAware
11:28PM 38.1240 138.9390 320° Northwest 468 539 30,000  Level FlightAware
11:29PM 38.2210 138.8370 320° Northwest 468 539 30,000  Level FlightAware
11:29PM 38.2900 138.7650 321° Northwest 464 534 30,000  Level FlightAware
11:30PM 38.3520 138.6990 320° Northwest 460 529 30,000  Level FlightAware
11:31PM 38.4210 138.6260 320° Northwest 459 528 30,000 300 Level FlightAware
11:31PM 38.4860 138.5570 320° Northwest 459 528 30,400 1,341 Climbing FlightAware
11:32PM 38.5570 138.4810 320° Northwest 454 522 31,900 1,129 Climbing FlightAware
11:33PM 38.6290 138.4150 324° Northwest 458 527 32,000 100 Climbing FlightAware
11:33PM 38.6670 138.3970 340° North 464 534 32,000  Level FlightAware
11:34PM 38.7630 138.3890 356° North 471 542 32,000  Level FlightAware
11:35PM 38.8940 138.3930 North 471 542 32,000  Level FlightAware
11:36PM 38.9890 138.3950 North 469 540 32,000  Level FlightAware
11:36PM 39.0340 138.3930 358° North 469 540 32,000  Level FlightAware
11:37PM 39.1190 138.3900 358° North 464 534 32,000  Level FlightAware
11:37PM 39.2140 138.3860 358° North 464 534 32,000  Level FlightAware
11:38PM 39.3010 138.3830 358° North 465 535 32,000  Level FlightAware
11:39PM 39.3850 138.3810 359° North 464 534 32,000  Level FlightAware
11:40PM 39.4830 138.3780 359° North 463 533 32,000  Level FlightAware
11:40PM 39.5690 138.3760 359° North 465 535 32,000  Level FlightAware
11:41PM 39.6530 138.3730 358° North 464 534 32,000  Level FlightAware
11:42PM 39.7540 138.3700 359° North 454 522 32,000  Level FlightAware
11:42PM 39.8370 138.3680 359° North 453 521 32,000  Level FlightAware
11:43PM 39.9310 138.3650 359° North 451 519 32,000  Level FlightAware
11:44PM 40.0160 138.3620 358° North 449 517 32,000  Level FlightAware
11:44PM 40.1120 138.3590 359° North 454 522 32,000  Level FlightAware
11:45PM 40.1970 138.3570 359° North 453 521 32,000  Level FlightAware
11:46PM 40.2800 138.3540 358° North 451 519 32,000  Level FlightAware
11:47PM 40.3750 138.3510 359° North 450 518 32,000  Level FlightAware
11:47PM 40.4570 138.3490 359° North 449 517 32,000  Level FlightAware
11:48PM 40.5500 138.3460 359° North 448 516 32,000  Level FlightAware
11:49PM 40.6320 138.3430 358° North 438 504 32,000  Level FlightAware
11:49PM 40.7160 138.3410 359° North 447 514 32,000  Level FlightAware
11:50PM 40.8080 138.3380 359° North 447 514 32,000  Level FlightAware
11:51PM 40.8830 138.3360 359° North 447 514 32,000  Level FlightAware
11:52PM 41.0300 138.3310 359° North 447 514 32,000  Level FlightAware
11:53PM 41.1720 138.3260 358° North 448 516 32,000  Level FlightAware
11:54PM 41.2690 138.3230 359° North 449 517 32,000  Level FlightAware
11:54PM 41.3530 138.3210 359° North 448 516 32,000  Level FlightAware
11:55PM 41.4670 138.3170 358° North 447 514 32,000  Level FlightAware
11:56PM 41.5590 138.3140 359° North 447 514 32,000  Level FlightAware
11:57PM 41.6380 138.3120 359° North 447 514 32,000  Level FlightAware
11:57PM 41.7170 138.3090 358° North 448 516 32,000  Level FlightAware
11:58PM 41.8190 138.3060 359° North 448 516 32,000  Level FlightAware
11:59PM 41.8930 138.3030 358° North 450 518 32,000  Level FlightAware
12:00AM 42.0140 138.2990 359° North 449 517 32,000  Level FlightAware
12:01AM 42.1110 138.2960 359° North 451 519 32,000  Level FlightAware
12:01AM 42.1860 138.2940 359° North 454 522 32,000  Level FlightAware
12:02AM 42.2720 138.2910 359° North 447 514 32,000  Level FlightAware
12:03AM 42.3990 138.2870 359° North 447 514 32,000  Level FlightAware
12:04AM 42.4820 138.2840 358° North 454 522 32,000  Level FlightAware
12:04AM 42.5870 138.2800 358° North 454 522 32,000  Level FlightAware
12:05AM 42.6760 138.2760 358° North 454 522 32,000  Level FlightAware
12:06AM 42.7480 138.2720 358° North 454 522 32,000  Level FlightAware
12:07AM 42.8190 138.2690 358° North 454 522 32,000  Level FlightAware
12:07AM 42.8900 138.2660 358° North 454 522 32,000  Level FlightAware
12:08AM 42.9620 138.2620 358° North 454 522 32,000  Level FlightAware
12:09AM 43.0330 138.2590 358° North 454 522 32,000  Level FlightAware
12:09AM 43.1220 138.2550 358° North 454 522 32,000  Level FlightAware
12:10AM 43.1940 138.2510 358° North 454 522 32,000  Level FlightAware
12:11AM 43.2650 138.2480 358° North 454 522 32,000  Level FlightAware
12:11AM 43.4580 138.2510 North 32,000  Level FlightAware
12:13AM 43.6300 138.2450 359° North 32,000  Level FlightAware
12:14AM 43.7190 138.2390 357° North 447 514 32,000  Level FlightAware
12:14AM 43.7890 138.2340 357° North 447 514 32,000  Level FlightAware
12:15AM 43.8590 138.2290 357° North 447 514 32,000  Level FlightAware
12:16AM 43.9470 138.2230 357° North 447 514 32,000  Level FlightAware
12:16AM 44.0170 138.2180 357° North 447 514 32,000  Level FlightAware
12:17AM 44.0870 138.2120 356° North 447 514 32,000  Level FlightAware
12:18AM 44.1400 138.2090 358° North 447 514 32,000  Level FlightAware
12:18AM 44.2100 138.2030 356° North 447 514 32,000  Level FlightAware
12:19AM 44.2800 138.1980 357° North 447 514 32,000  Level FlightAware
12:20AM 44.3680 138.1920 357° North 447 514 32,000  Level FlightAware
12:20AM 44.4210 138.1880 357° North 447 514 32,000  Level FlightAware
12:21AM 44.5080 138.1820 357° North 447 514 32,000  Level FlightAware
12:22AM 44.5790 138.1760 357° North 447 514 32,000  Level FlightAware
12:22AM 44.6490 138.1710 357° North 447 514 32,000  Level FlightAware
12:25AM 44.8128 137.9145 312° West  Level Estimated
12:26AM 44.8899 137.7928 312° West  Level Estimated
12:27AM 44.9670 137.6709 312° West  Level Estimated
12:28AM 45.0439 137.5485 312° West  Level Estimated
12:29AM 45.1207 137.4259 312° West  Level Estimated
12:30AM 45.1973 137.3029 312° West  Level Estimated
12:31AM 45.2738 137.1796 311° West  Level Estimated
12:32AM 45.3502 137.0559 311° West  Level Estimated
12:33AM 45.4265 136.9319 311° West  Level Estimated
12:34AM 45.5026 136.8076 311° West  Level Estimated
12:35AM 45.5786 136.6829 311° West  Level Estimated
12:35AM 46.3680 138.0780 311° West 432 497 32,000  Level FlightAware
12:36AM 46.4590 138.0720 357° North 430 495 32,000  Level FlightAware
12:37AM 46.5270 138.0610 354° North 431 496 32,000  Level FlightAware
12:37AM 46.6210 138.0200 343° North 435 501 32,000  Level FlightAware
12:38AM 46.6960 137.9830 341° North 436 502 32,000  Level FlightAware
12:39AM 46.7950 137.9340 341° North 436 502 32,000  Level FlightAware
12:40AM 46.8740 137.8960 342° North 437 503 32,000  Level FlightAware
12:40AM 46.9410 137.8630 341° North 438 504 32,000  Level FlightAware
12:41AM 47.0380 137.8160 342° North 436 502 32,000  Level FlightAware
12:42AM 47.1240 137.7730 341° North 435 501 32,000  Level FlightAware
12:42AM 47.1920 137.7390 341° North 437 503 32,000  Level FlightAware
12:43AM 47.2710 137.7000 341° North 439 505 32,000  Level FlightAware
12:44AM 47.3700 137.6510 341° North 438 504 32,000  Level FlightAware
12:45AM 47.4380 137.6170 341° North 440 506 32,000  Level FlightAware
12:45AM 47.5300 137.5710 341° North 445 512 32,000  Level FlightAware
12:46AM 47.6100 137.5310 341° North 445 512 32,000  Level FlightAware
12:47AM 47.6900 137.4900 341° North 447 514 32,000  Level FlightAware
12:47AM 47.7790 137.4450 341° North 450 518 32,000  Level FlightAware
12:48AM 47.8570 137.4050 341° North 447 514 32,000  Level FlightAware
12:49AM 47.9590 137.3540 341° North 450 518 32,000  Level FlightAware
12:50AM 48.0390 137.3120 341° North 448 516 32,000  Level FlightAware
12:50AM 48.1270 137.2670 341° North 449 517 32,000  Level FlightAware
12:51AM 48.1990 137.2300 341° North 451 519 32,000  Level FlightAware
12:52AM 48.2930 137.1810 341° North 454 522 32,000  Level FlightAware
12:53AM 48.3750 137.1390 341° North 453 521 32,000  Level FlightAware
12:53AM 48.4550 137.0980 341° North 453 521 32,000  Level FlightAware
12:54AM 48.5390 137.0540 341° North 454 522 32,000  Level FlightAware
12:55AM 48.6300 137.0070 341° North 456 525 32,000  Level FlightAware
12:55AM 48.7110 136.9640 341° North 453 521 32,000  Level FlightAware
12:56AM 48.7910 136.9220 341° North 452 520 32,000  Level FlightAware
12:57AM 48.8660 136.8820 341° North 452 520 32,000  Level FlightAware
12:57AM 48.9370 136.8440 341° North 454 522 32,000  Level FlightAware
12:58AM 49.0070 136.8070 341° North 457 526 32,000  Level FlightAware
12:59AM 49.0890 136.7620 340° North 458 527 32,000  Level FlightAware
12:59AM 49.1880 136.7080 340° North 459 528 32,000  Level FlightAware
01:00AM 49.2700 136.6630 340° North 461 531 32,000  Level FlightAware
01:01AM 49.3590 136.6150 341° North 462 532 32,000  Level FlightAware
01:01AM 49.4270 136.5760 340° North 465 535 32,000  Level FlightAware
01:02AM 49.5090 136.5110 333° Northwest 473 544 32,000  Level FlightAware
01:03AM 49.5840 136.4430 330° Northwest 475 547 32,000  Level FlightAware
01:04AM 49.6710 136.3620 329° Northwest 478 550 32,000  Level FlightAware
01:04AM 49.7580 136.2770 328° Northwest 479 551 32,000  Level FlightAware
01:05AM 49.8340 136.2040 328° Northwest 478 550 32,000  Level FlightAware
01:06AM 49.9130 136.1280 328° Northwest 479 551 32,000  Level FlightAware
01:06AM 49.9890 136.0550 328° Northwest 479 551 32,000  Level FlightAware
01:07AM 50.0670 135.9800 328° Northwest 481 554 32,000  Level FlightAware
01:08AM 50.1520 135.8960 328° Northwest 481 554 32,000  Level FlightAware
01:08AM 50.2210 135.8290 328° Northwest 482 555 32,000  Level FlightAware
01:09AM 50.3110 135.7400 328° Northwest 483 556 32,000  Level FlightAware
01:10AM 50.3890 135.6630 328° Northwest 484 557 32,000  Level FlightAware
01:10AM 50.4570 135.5960 328° Northwest 484 557 32,000  Level FlightAware
01:12AM 50.5830 135.4710 328° Northwest 486 559 32,000  Level FlightAware
01:12AM 50.6500 135.4040 328° Northwest 486 559 32,000  Level FlightAware
01:13AM 50.7140 135.3390 327° Northwest 487 560 32,000  Level FlightAware
01:14AM 50.8270 135.2250 328° Northwest 489 563 32,000  Level FlightAware
01:14AM 50.8920 135.1590 327° Northwest 490 564 32,000  Level FlightAware
01:15AM 50.9900 135.0630 328° Northwest 490 564 32,000  Level FlightAware
01:16AM 51.0810 134.9740 328° Northwest 491 565 32,000  Level FlightAware
01:16AM 51.1480 134.9060 328° Northwest 491 565 32,000  Level FlightAware
01:17AM 51.2340 134.8210 328° Northwest 492 566 32,000  Level FlightAware
01:18AM 51.3080 134.7470 328° Northwest 493 567 32,000  Level FlightAware
01:19AM 51.3960 134.6580 328° Northwest 493 567 32,000  Level FlightAware
01:19AM 51.4770 134.5770 328° Northwest 493 567 32,000  Level FlightAware
01:20AM 51.5420 134.5120 328° Northwest 494 568 32,000  Level FlightAware
01:20AM 51.6230 134.4290 328° Northwest 494 568 32,000  Level FlightAware
01:21AM 51.7240 134.3270 328° Northwest 495 570 32,000  Level FlightAware
01:22AM 51.8120 134.2360 327° Northwest 496 571 32,000  Level FlightAware
01:23AM 51.8770 134.1670 327° Northwest 496 571 32,000  Level FlightAware
01:24AM 51.9430 134.0980 327° Northwest 496 571 32,000  Level FlightAware
01:24AM 52.0250 134.0120 327° Northwest 496 571 32,000  Level FlightAware
01:25AM 52.0900 133.9420 327° Northwest 496 571 32,000  Level FlightAware
01:26AM 52.1550 133.8730 327° Northwest 496 571 32,000  Level FlightAware
01:26AM 52.2210 133.8040 327° Northwest 496 571 32,000  Level FlightAware
01:27AM 52.2860 133.7350 327° Northwest 496 571 32,000  Level FlightAware
01:28AM 52.3680 133.6480 327° Northwest 496 571 32,000  Level FlightAware
01:29AM 52.4340 133.5780 327° Northwest 496 571 32,000  Level FlightAware
01:29AM 52.4990 133.5080 327° Northwest 496 571 32,000  Level FlightAware
01:30AM 52.5640 133.4380 327° Northwest 496 571 32,000  Level FlightAware
01:31AM 52.6300 133.3680 327° Northwest 496 571 32,000  Level FlightAware
01:31AM 52.7120 133.2810 327° Northwest 496 571 32,000 26 Level FlightAware
01:34AM 52.8584 132.9562 307° West  Level Estimated
01:35AM 52.9272 132.8020 307° West  Level Estimated
01:36AM 52.9958 132.6472 306° West  Level Estimated
01:37AM 53.0643 132.4920 306° West  Level Estimated
01:38AM 53.1325 132.3363 306° West  Level Estimated
01:39AM 53.2006 132.1801 306° West  Level Estimated
01:40AM 53.2684 132.0235 306° West  Level Estimated
01:41AM 53.3360 131.8663 306° West  Level Estimated
01:42AM 53.4034 131.7086 306° West  Level Estimated
01:43AM 53.4706 131.5504 306° West  Level Estimated
01:44AM 53.5377 131.3917 305° West  Level Estimated
01:45AM 53.6044 131.2325 305° West  Level Estimated
01:46AM 53.6710 131.0728 305° West  Level Estimated
01:47AM 53.7374 130.9126 305° West  Level Estimated
01:48AM 53.8035 130.7519 305° West  Level Estimated
01:49AM 53.8695 130.5907 305° West  Level Estimated
01:50AM 53.9352 130.4290 305° West  Level Estimated
01:51AM 54.0007 130.2668 305° West  Level Estimated
01:52AM 54.0660 130.1040 304° West  Level Estimated
01:53AM 54.1310 129.9408 304° West  Level Estimated
01:54AM 54.1959 129.7770 304° West  Level Estimated
01:55AM 54.2605 129.6127 304° West  Level Estimated
01:56AM 54.3249 129.4479 304° West  Level Estimated
01:57AM 54.3890 129.2826 304° West  Level Estimated
01:58AM 54.4530 129.1168 304° West  Level Estimated
01:59AM 54.5167 128.9505 303° West  Level Estimated
02:00AM 54.5802 128.7836 303° West  Level Estimated
02:01AM 54.6434 128.6162 303° West  Level Estimated
02:02AM 54.7064 128.4483 303° West  Level Estimated
02:03AM 54.7692 128.2799 303° West  Level Estimated
02:04AM 54.8318 128.1110 303° West  Level Estimated
02:05AM 54.8941 127.9415 303° West  Level Estimated
02:06AM 54.9562 127.7715 303° West  Level Estimated
02:07AM 55.0180 127.6010 302° West  Level Estimated
02:08AM 55.0796 127.4299 302° West  Level Estimated
02:09AM 55.1410 127.2584 302° West  Level Estimated
02:10AM 55.2021 127.0863 302° West  Level Estimated
02:11AM 55.2630 126.9136 302° West  Level Estimated
02:12AM 55.3236 126.7405 302° West  Level Estimated
02:13AM 55.3840 126.5668 302° West  Level Estimated
02:14AM 55.4442 126.3926 301° West  Level Estimated
02:15AM 55.5041 126.2179 301° West  Level Estimated
02:16AM 55.5637 126.0426 301° West  Level Estimated
02:17AM 55.6231 125.8668 301° West  Level Estimated
02:18AM 55.6823 125.6904 301° West  Level Estimated
02:19AM 55.7411 125.5136 301° West  Level Estimated
02:20AM 55.7998 125.3362 301° West  Level Estimated
02:21AM 55.8582 125.1582 300° West  Level Estimated
02:22AM 55.9163 124.9797 300° West  Level Estimated
02:23AM 55.9741 124.8007 300° West  Level Estimated
02:24AM 56.0317 124.6212 300° West  Level Estimated
02:25AM 56.0891 124.4411 300° West  Level Estimated
02:26AM 56.1462 124.2605 300° West  Level Estimated
02:27AM 56.2030 124.0793 299° West  Level Estimated
02:28AM 56.2595 123.8976 299° West  Level Estimated
02:29AM 56.3158 123.7154 299° West  Level Estimated
02:30AM 56.3718 123.5327 299° West  Level Estimated
02:31AM 56.4276 123.3493 299° West  Level Estimated
02:32AM 56.4830 123.1655 299° West  Level Estimated
02:33AM 56.5382 122.9811 299° West  Level Estimated
02:34AM 56.5932 122.7962 298° West  Level Estimated
02:35AM 56.6478 122.6108 298° West  Level Estimated
02:36AM 56.7022 122.4248 298° West  Level Estimated
02:37AM 56.7563 122.2383 298° West  Level Estimated
02:38AM 56.8101 122.0512 298° West  Level Estimated
02:39AM 56.8636 121.8636 298° West  Level Estimated
02:40AM 56.9169 121.6755 297° West  Level Estimated
02:41AM 56.9699 121.4868 297° West  Level Estimated
02:42AM 57.0225 121.2976 297° West  Level Estimated
02:43AM 57.0750 121.1079 297° West  Level Estimated
02:44AM 57.1271 120.9176 297° West  Level Estimated
02:45AM 57.1789 120.7268 297° West  Level Estimated
02:46AM 57.2304 120.5355 297° West  Level Estimated
02:47AM 57.2817 120.3436 296° West  Level Estimated
02:48AM 57.3326 120.1512 296° West  Level Estimated
02:49AM 57.3833 119.9582 296° West  Level Estimated
02:50AM 57.4336 119.7648 296° West  Level Estimated
02:51AM 57.4837 119.5708 296° West  Level Estimated
02:52AM 57.5335 119.3762 296° West  Level Estimated
02:53AM 57.5829 119.1812 295° West  Level Estimated
02:54AM 57.6321 118.9855 295° West  Level Estimated
02:55AM 57.6809 118.7894 295° West  Level Estimated
02:56AM 57.7295 118.5928 295° West  Level Estimated
02:57AM 57.7777 118.3956 295° West  Level Estimated
02:58AM 57.8257 118.1979 295° West  Level Estimated
02:59AM 57.8733 117.9996 294° West  Level Estimated
03:00AM 57.9207 117.8009 294° West  Level Estimated
03:01AM 57.9677 117.6016 294° West  Level Estimated
03:02AM 58.0144 117.4018 294° West  Level Estimated
03:03AM 58.0607 117.2015 294° West  Level Estimated
03:04AM 58.1068 117.0007 294° West  Level Estimated
03:05AM 58.1526 116.7993 293° West  Level Estimated
03:06AM 58.1980 116.5974 293° West  Level Estimated
03:07AM 58.2431 116.3950 293° West  Level Estimated
03:08AM 58.2879 116.1921 293° West  Level Estimated
03:09AM 58.3324 115.9887 293° West  Level Estimated
03:10AM 58.3766 115.7848 293° West  Level Estimated
03:11AM 58.4204 115.5804 292° West  Level Estimated
03:12AM 58.4639 115.3754 292° West  Level Estimated
03:13AM 58.5071 115.1700 292° West  Level Estimated
03:14AM 58.5499 114.9640 292° West  Level Estimated
03:15AM 58.5924 114.7576 292° West  Level Estimated
03:16AM 58.6346 114.5506 291° West  Level Estimated
03:17AM 58.6764 114.3432 291° West  Level Estimated
03:18AM 58.7180 114.1352 291° West  Level Estimated
03:19AM 58.7592 113.9268 291° West  Level Estimated
03:20AM 58.8000 113.7178 291° West  Level Estimated
03:21AM 58.8405 113.5084 291° West  Level Estimated
03:22AM 58.8806 113.2985 290° West  Level Estimated
03:23AM 58.9205 113.0881 290° West  Level Estimated
03:24AM 58.9599 112.8772 290° West  Level Estimated
03:25AM 58.9991 112.6658 290° West  Level Estimated
03:26AM 59.0379 112.4540 290° West  Level Estimated
03:27AM 59.0763 112.2417 289° West  Level Estimated
03:28AM 59.1144 112.0289 289° West  Level Estimated
03:29AM 59.1522 111.8156 289° West  Level Estimated
03:30AM 59.1896 111.6019 289° West  Level Estimated
03:31AM 59.2266 111.3877 289° West  Level Estimated
03:32AM 59.2633 111.1730 289° West  Level Estimated
03:33AM 59.2997 110.9579 288° West  Level Estimated
03:34AM 59.3357 110.7423 288° West  Level Estimated
03:35AM 59.3713 110.5262 288° West  Level Estimated
03:36AM 59.4066 110.3098 288° West  Level Estimated
03:37AM 59.4415 110.0928 288° West  Level Estimated
03:38AM 59.4760 109.8754 287° West  Level Estimated
03:39AM 59.5102 109.6576 287° West  Level Estimated
03:40AM 59.5440 109.4393 287° West  Level Estimated
03:41AM 59.5775 109.2206 287° West  Level Estimated
03:42AM 59.6106 109.0015 287° West  Level Estimated
03:43AM 59.6433 108.7819 287° West  Level Estimated
03:44AM 59.6757 108.5619 286° West  Level Estimated
03:45AM 59.7077 108.3415 286° West  Level Estimated
03:46AM 59.7393 108.1207 286° West  Level Estimated
03:47AM 59.7705 107.8994 286° West  Level Estimated
03:48AM 59.8014 107.6777 286° West  Level Estimated
03:49AM 59.8319 107.4557 285° West  Level Estimated
03:50AM 59.8621 107.2332 285° West  Level Estimated
03:51AM 59.8918 107.0103 285° West  Level Estimated
03:52AM 59.9212 106.7870 285° West  Level Estimated
03:53AM 59.9502 106.5634 285° West  Level Estimated
03:54AM 59.9788 106.3393 284° West  Level Estimated
03:55AM 60.0071 106.1149 284° West  Level Estimated
03:56AM 60.0349 105.8900 284° West  Level Estimated
03:57AM 60.0624 105.6648 284° West  Level Estimated
03:58AM 60.0895 105.4393 284° West  Level Estimated
03:59AM 60.1162 105.2133 283° West  Level Estimated
04:00AM 60.1425 104.9870 283° West  Level Estimated
04:01AM 60.1685 104.7604 283° West  Level Estimated
04:02AM 60.1940 104.5333 283° West  Level Estimated
04:03AM 60.2192 104.3060 283° West  Level Estimated
04:04AM 60.2440 104.0782 282° West  Level Estimated
04:05AM 60.2683 103.8502 282° West  Level Estimated
04:06AM 60.2923 103.6218 282° West  Level Estimated
04:07AM 60.3159 103.3931 282° West  Level Estimated
04:08AM 60.3391 103.1640 282° West  Level Estimated
04:09AM 60.3619 102.9346 281° West  Level Estimated
04:10AM 60.3844 102.7049 281° West  Level Estimated
04:11AM 60.4064 102.4749 281° West  Level Estimated
04:12AM 60.4280 102.2446 281° West  Level Estimated
04:13AM 60.4492 102.0139 281° West  Level Estimated
04:14AM 60.4701 101.7830 280° West  Level Estimated
04:15AM 60.4905 101.5518 280° West  Level Estimated
04:16AM 60.5105 101.3203 280° West  Level Estimated
04:17AM 60.5302 101.0885 280° West  Level Estimated
04:18AM 60.5494 100.8564 280° West  Level Estimated
04:19AM 60.5682 100.6241 279° West  Level Estimated
04:20AM 60.5866 100.3915 279° West  Level Estimated
04:21AM 60.6046 100.1586 279° West  Level Estimated
04:22AM 60.6222 99.9255 279° West  Level Estimated
04:23AM 60.6394 99.6921 279° West  Level Estimated
04:24AM 60.6562 99.4585 278° West  Level Estimated
04:25AM 60.6726 99.2246 278° West  Level Estimated
04:26AM 60.6886 98.9905 278° West  Level Estimated
04:27AM 60.7042 98.7561 278° West  Level Estimated
04:28AM 60.7193 98.5216 278° West  Level Estimated
04:29AM 60.7341 98.2868 277° West  Level Estimated
04:30AM 60.7484 98.0518 277° West  Level Estimated
04:31AM 60.7623 97.8166 277° West  Level Estimated
04:32AM 60.7759 97.5812 277° West  Level Estimated
04:33AM 60.7890 97.3456 277° West  Level Estimated
04:34AM 60.8017 97.1098 276° West  Level Estimated
04:35AM 60.8139 96.8739 276° West  Level Estimated
04:36AM 60.8258 96.6377 276° West  Level Estimated
04:37AM 60.8372 96.4014 276° West  Level Estimated
04:38AM 60.8483 96.1649 276° West  Level Estimated
04:39AM 60.8589 95.9283 275° West  Level Estimated
04:40AM 60.8691 95.6915 275° West  Level Estimated
04:41AM 60.8789 95.4545 275° West  Level Estimated
04:42AM 60.8882 95.2175 275° West  Level Estimated
04:43AM 60.8972 94.9802 275° West  Level Estimated
04:44AM 60.9057 94.7429 274° West  Level Estimated
04:45AM 60.9138 94.5054 274° West  Level Estimated
04:46AM 60.9216 94.2678 274° West  Level Estimated
04:47AM 60.9288 94.0301 274° West  Level Estimated
04:48AM 60.9357 93.7923 274° West  Level Estimated
04:49AM 60.9421 93.5544 273° West  Level Estimated
04:50AM 60.9482 93.3163 273° West  Level Estimated
04:51AM 60.9538 93.0782 273° West  Level Estimated
04:52AM 60.9589 92.8401 273° West  Level Estimated
04:53AM 60.9637 92.6018 272° West  Level Estimated
04:54AM 60.9680 92.3635 272° West  Level Estimated
04:55AM 60.9720 92.1251 272° West  Level Estimated
04:56AM 60.9754 91.8867 272° West  Level Estimated
04:57AM 60.9785 91.6482 272° West  Level Estimated
04:58AM 60.9812 91.4097 271° West  Level Estimated
04:59AM 60.9834 91.1711 271° West  Level Estimated
05:00AM 60.9852 90.9325 271° West  Level Estimated
05:01AM 60.9866 90.6939 271° West  Level Estimated
05:02AM 60.9876 90.4553 271° West  Level Estimated
05:03AM 60.9882 90.2166 270° West  Level Estimated
05:04AM 60.9883 89.9780 270° West  Level Estimated
05:05AM 60.9880 89.7393 270° West  Level Estimated
05:06AM 60.9873 89.5007 270° West  Level Estimated
05:07AM 60.9861 89.2620 270° West  Level Estimated
05:08AM 60.9846 89.0234 269° West  Level Estimated
05:09AM 60.9826 88.7849 269° West  Level Estimated
05:10AM 60.9802 88.5463 269° West  Level Estimated
05:11AM 60.9774 88.3078 269° West  Level Estimated
05:12AM 60.9741 88.0693 268° West  Level Estimated
05:13AM 60.9705 87.8309 268° West  Level Estimated
05:14AM 60.9664 87.5926 268° West  Level Estimated
05:15AM 60.9619 87.3543 268° West  Level Estimated
05:16AM 60.9569 87.1161 268° West  Level Estimated
05:17AM 60.9516 86.8779 267° West  Level Estimated
05:18AM 60.9458 86.6398 267° West  Level Estimated
05:19AM 60.9396 86.4019 267° West  Level Estimated
05:20AM 60.9330 86.1640 267° West  Level Estimated
05:21AM 60.9260 85.9262 267° West  Level Estimated
05:22AM 60.9185 85.6886 266° West  Level Estimated
05:23AM 60.9107 85.4510 266° West  Level Estimated
05:23AM 61.7130 78.8110 266° West 38,000  Level FlightAware
05:24AM 60.9024 85.2136 266° West  Level Estimated
05:24AM 61.7090 78.6580 267° West 477 549 38,000  Level FlightAware
05:25AM 61.7030 78.4760 266° West 477 549 38,000  Level FlightAware
05:26AM 61.6960 78.2790 266° West 477 549 38,000  Level FlightAware
05:26AM 61.6910 78.0820 267° West 38,000  Level FlightAware
05:27AM 61.6830 77.8800 265° West 471 542 38,000  Level FlightAware
05:28AM 61.6760 77.6930 266° West 471 542 38,000  Level FlightAware
05:28AM 61.6700 77.5020 266° West 470 541 38,000  Level FlightAware
05:29AM 61.6610 77.2910 265° West 471 542 38,000  Level FlightAware
05:30AM 61.6540 77.1160 265° West 473 544 38,000  Level FlightAware
05:30AM 61.6450 76.9280 264° West 472 543 38,000  Level FlightAware
05:31AM 61.6360 76.7290 265° West 472 543 38,000  Level FlightAware
05:32AM 61.6280 76.5420 265° West 471 542 38,000  Level FlightAware
05:33AM 61.6140 76.2450 264° West 472 543 38,000  Level FlightAware
05:33AM 61.6060 76.0950 264° West 471 542 38,000  Level FlightAware
05:34AM 61.5950 75.8770 264° West 471 542 38,000  Level FlightAware
05:35AM 61.5840 75.6640 264° West 469 540 38,000  Level FlightAware
05:36AM 61.5750 75.5140 263° West 470 541 38,000  Level FlightAware
05:36AM 61.5630 75.2880 264° West 469 540 38,000  Level FlightAware
05:37AM 61.5540 75.1260 263° West 469 540 38,000  Level FlightAware
05:38AM 61.5440 74.9470 263° West 467 537 38,000  Level FlightAware
05:38AM 61.5310 74.7340 263° West 469 540 38,000  Level FlightAware
05:39AM 61.5190 74.5470 262° West 470 541 38,000  Level FlightAware
05:40AM 61.5070 74.3550 263° West 466 536 38,000  Level FlightAware
05:40AM 61.4950 74.1660 263° West 464 534 38,000  Level FlightAware
05:41AM 61.4830 74.0020 261° West 462 532 38,000  Level FlightAware
05:42AM 61.4670 73.7970 261° West 462 532 38,000  Level FlightAware
05:43AM 61.4530 73.6150 261° West 463 533 38,000  Level FlightAware
05:43AM 61.4390 73.4350 261° West 464 534 38,000  Level FlightAware
05:44AM 61.4250 73.2560 261° West 461 531 38,000  Level FlightAware
05:45AM 61.4090 73.0550 261° West 462 532 38,000  Level FlightAware
05:45AM 61.3940 72.8780 260° West 462 532 38,000  Level FlightAware
05:46AM 61.3750 72.6520 260° West 464 534 38,000  Level FlightAware
05:47AM 61.3570 72.4390 260° West 465 535 38,000  Level FlightAware
05:48AM 61.3450 72.3050 259° West 464 534 38,000  Level FlightAware
05:48AM 61.3260 72.0900 260° West 465 535 38,000  Level FlightAware
05:49AM 61.3030 71.8410 259° West 464 534 38,000  Level FlightAware
05:50AM 61.2880 71.6710 260° West 464 534 38,000  Level FlightAware
05:51AM 61.2700 71.4800 259° West 464 534 38,000  Level FlightAware
05:51AM 61.2530 71.2980 259° West 464 534 38,000  Level FlightAware
05:52AM 61.2390 71.1490 259° West 464 534 38,000  Level FlightAware
05:53AM 61.2170 70.9310 258° West 38,000  Level FlightAware
05:53AM 61.2040 70.8070 258° West 465 535 38,000  Level FlightAware
05:54AM 61.1850 70.6210 258° West 465 535 38,000  Level FlightAware
05:56AM 61.1460 70.2030 259° West 464 534 38,000  Level FlightAware
05:56AM 61.1290 70.0390 258° West 463 533 38,000  Level FlightAware
05:57AM 61.1100 69.8490 258° West 461 531 38,000  Level FlightAware
05:58AM 61.0880 69.6360 258° West 462 532 38,000  Level FlightAware
05:58AM 61.0760 69.5250 257° West 462 532 38,000  Level FlightAware
05:59AM 61.0530 69.3120 258° West 463 533 38,000  Level FlightAware
06:00AM 61.0300 69.1180 256° West 464 534 38,000  Level FlightAware
06:01AM 61.0000 68.9510 250° West 464 534 38,000  Level FlightAware
06:01AM 60.9650 68.7770 248° West 462 532 38,000  Level FlightAware
06:02AM 60.9370 68.6370 248° West 463 533 38,000  Level FlightAware
06:03AM 60.8970 68.4340 248° West 462 532 38,000  Level FlightAware
06:04AM 60.8470 68.1830 248° West 463 533 38,000  Level FlightAware
06:04AM 60.8240 68.0690 248° West 463 533 38,000  Level FlightAware
06:05AM 60.7890 67.8940 248° West 464 534 38,000  Level FlightAware
06:06AM 60.7540 67.7210 248° West 465 535 38,000  Level FlightAware
06:07AM 60.7020 67.4690 247° West 465 535 38,000  Level FlightAware
06:07AM 60.6740 67.3310 248° West 465 535 38,000  Level FlightAware
06:08AM 60.6100 67.0270 247° West 466 536 38,000  Level FlightAware
06:09AM 60.5810 66.8900 247° West 466 536 38,000  Level FlightAware
06:10AM 60.5520 66.7520 247° West 466 536 38,000  Level FlightAware
06:11AM 60.5170 66.5810 247° West 466 536 38,000  Level FlightAware
06:11AM 60.4880 66.4440 247° West 466 536 38,000  Level FlightAware
06:12AM 60.4590 66.3070 247° West 466 536 38,000  Level FlightAware
06:13AM 60.4310 66.1700 248° West 466 536 38,000  Level FlightAware
06:13AM 60.4020 66.0340 247° West 466 536 38,000  Level FlightAware
06:14AM 60.3660 65.8630 247° West 466 536 38,000  Level FlightAware
06:15AM 60.3370 65.7270 247° West 466 536 38,000  Level FlightAware
06:15AM 60.3090 65.5900 248° West 466 536 38,000  Level FlightAware
06:16AM 60.2800 65.4540 247° West 466 536 38,000  Level FlightAware
06:17AM 60.2510 65.3180 247° West 466 536 38,000  Level FlightAware
06:18AM 60.2160 65.1480 248° West 466 536 38,000  Level FlightAware
06:20AM 60.1256 64.7492 246° West  Level Estimated
06:21AM 60.0771 64.5384 245° Southwest  Level Estimated
06:22AM 60.0283 64.3281 245° Southwest  Level Estimated
06:23AM 59.9792 64.1185 245° Southwest  Level Estimated
06:24AM 59.9297 63.9095 245° Southwest  Level Estimated
06:25AM 59.8799 63.7012 245° Southwest  Level Estimated
06:26AM 59.8298 63.4935 244° Southwest  Level Estimated
06:27AM 59.7793 63.2863 244° Southwest  Level Estimated
06:28AM 59.7285 63.0799 244° Southwest  Level Estimated
06:29AM 59.6774 62.8740 244° Southwest  Level Estimated
06:30AM 59.6260 62.6688 244° Southwest  Level Estimated
06:31AM 59.5742 62.4642 244° Southwest  Level Estimated
06:32AM 59.5221 62.2602 243° Southwest  Level Estimated
06:32AM 59.6680 61.3240 243° Southwest 457 526 38,000  Level FlightAware
06:33AM 59.6450 61.1560 255° West 457 526 38,000  Level FlightAware
06:33AM 59.6190 60.9730 254° West 457 526 38,000  Level FlightAware
06:34AM 59.5980 60.8310 254° West 457 526 38,000  Level FlightAware
06:35AM 59.5650 60.6000 254° West 456 525 38,000  Level FlightAware
06:36AM 59.5500 60.4470 259° West 451 519 38,000  Level FlightAware
06:36AM 59.5370 60.2600 262° West 450 518 38,000  Level FlightAware
06:37AM 59.5250 60.0940 262° West 450 518 38,000  Level FlightAware
06:38AM 59.5120 59.9160 262° West 451 519 38,000  Level FlightAware
06:39AM 59.4990 59.7450 262° West 448 516 38,000  Level FlightAware
06:39AM 59.4860 59.5750 262° West 449 517 38,000  Level FlightAware
06:40AM 59.4720 59.3960 261° West 446 513 38,000  Level FlightAware
06:41AM 59.4590 59.2310 261° West 449 517 38,000  Level FlightAware
06:41AM 59.4460 59.0750 261° West 442 509 38,000  Level FlightAware
06:42AM 59.4270 58.8370 261° West 446 513 38,000  Level FlightAware
06:43AM 59.4150 58.6990 260° West 441 507 38,000  Level FlightAware
06:44AM 59.3990 58.5100 261° West 443 510 38,000  Level FlightAware
06:44AM 59.3840 58.3420 260° West 442 509 38,000  Level FlightAware
06:45AM 59.3710 58.1940 260° West 442 509 38,000  Level FlightAware
06:46AM 59.3490 57.9440 260° West 441 507 38,000  Level FlightAware
06:47AM 59.3350 57.7770 261° West 438 504 38,000  Level FlightAware
06:47AM 59.3210 57.6240 260° West 437 503 38,000  Level FlightAware
06:48AM 59.3110 57.5130 260° West 437 503 38,000  Level FlightAware
06:49AM 59.2910 57.2970 260° West 439 505 38,000  Level FlightAware
06:50AM 59.2760 57.1340 260° West 439 505 38,000  Level FlightAware
06:50AM 59.2650 57.0170 260° West 439 505 38,000  Level FlightAware
06:51AM 59.2440 56.8050 259° West 437 503 38,000  Level FlightAware
06:52AM 59.2240 56.5910 260° West 435 501 38,000  Level FlightAware
06:52AM 59.2120 56.4750 259° West 437 503 38,000  Level FlightAware
06:53AM 59.1930 56.2780 259° West 438 504 38,000  Level FlightAware
06:54AM 59.1760 56.1150 259° West 433 498 38,000  Level FlightAware
06:55AM 59.1550 55.9120 259° West 430 495 38,000  Level FlightAware
06:56AM 59.1370 55.7410 258° West 429 494 38,000  Level FlightAware
06:56AM 59.1230 55.6090 258° West 427 491 38,000  Level FlightAware
06:57AM 59.1040 55.4270 259° West 427 491 38,000  Level FlightAware
06:58AM 59.0890 55.2890 258° West 428 493 38,000  Level FlightAware
06:58AM 59.0720 55.1340 258° West 430 495 38,000  Level FlightAware
06:59AM 59.0540 54.9850 257° West 430 495 38,000  Level FlightAware
07:00AM 59.0390 54.8570 257° West 430 495 38,000  Level FlightAware
07:01AM 59.0110 54.5970 258° West 426 490 38,000  Level FlightAware
07:02AM 58.9860 54.4060 256° West 424 488 38,000  Level FlightAware
07:02AM 58.9670 54.2520 257° West 422 486 38,000  Level FlightAware
07:03AM 58.9460 54.0870 256° West 422 486 38,000  Level FlightAware
07:04AM 58.9240 53.9220 256° West 425 489 38,000  Level FlightAware
07:04AM 58.9070 53.7900 256° West 429 494 38,000  Level FlightAware
07:05AM 58.8880 53.6420 256° West 431 496 38,000  Level FlightAware
07:06AM 58.8650 53.4720 255° West 430 495 38,000  Level FlightAware
07:07AM 58.8440 53.3150 256° West 430 495 38,000  Level FlightAware
07:07AM 58.8260 53.1810 256° West 428 493 38,000  Level FlightAware
07:08AM 58.7930 52.9450 255° West 425 489 38,000  Level FlightAware
07:09AM 58.7740 52.8090 255° West 425 489 38,000  Level FlightAware
07:10AM 58.7410 52.5770 255° West 426 490 38,000  Level FlightAware
07:11AM 58.7220 52.4400 255° West 425 489 38,000  Level FlightAware
07:11AM 58.6990 52.2820 254° West 423 487 38,000  Level FlightAware
07:12AM 58.6720 52.1230 252° West 426 490 38,000  Level FlightAware
07:13AM 58.6430 52.0000 246° West 427 491 38,000  Level FlightAware
07:13AM 58.6020 51.8250 246° West 425 489 38,000  Level FlightAware
07:14AM 58.5770 51.7220 245° Southwest 423 487 38,000  Level FlightAware
07:15AM 58.5460 51.5900 246° West 423 487 38,000  Level FlightAware
07:16AM 58.4900 51.3580 245° Southwest 423 487 38,000  Level FlightAware
07:16AM 58.4610 51.2390 245° Southwest 423 487 38,000  Level FlightAware
07:17AM 58.4230 51.0820 245° Southwest 423 487 38,000  Level FlightAware
07:18AM 58.3900 50.9480 245° Southwest 423 487 38,000  Level FlightAware
07:19AM 58.3480 50.7820 244° Southwest 423 487 38,000  Level FlightAware
07:19AM 58.3060 50.6110 245° Southwest 423 487 38,000  Level FlightAware
07:20AM 58.2700 50.4650 245° Southwest 423 487 38,000  Level FlightAware
07:21AM 58.2250 50.2860 245° Southwest 422 486 38,000  Level FlightAware
07:22AM 58.1870 50.1390 244° Southwest 420 483 38,000  Level FlightAware
07:22AM 58.1580 50.0260 244° Southwest 419 482 38,000  Level FlightAware
07:23AM 58.1070 49.8290 244° Southwest 419 482 38,000  Level FlightAware
07:24AM 58.0680 49.6790 244° Southwest 415 478 38,000  Level FlightAware
07:25AM 58.0340 49.5470 244° Southwest 413 475 38,000  Level FlightAware
07:26AM 57.9730 49.3180 243° Southwest 412 474 38,000  Level FlightAware
07:27AM 57.9380 49.1870 243° Southwest 410 472 38,000  Level FlightAware
07:27AM 57.8970 49.0320 244° Southwest 409 471 38,000  Level FlightAware
07:28AM 57.8630 48.9050 243° Southwest 410 472 38,000  Level FlightAware
07:29AM 57.8290 48.7800 243° Southwest 410 472 38,000  Level FlightAware
07:29AM 57.8010 48.6760 243° Southwest 411 473 38,000  Level FlightAware
07:30AM 57.7550 48.5100 243° Southwest 415 478 38,000  Level FlightAware
07:31AM 57.7160 48.3670 243° Southwest 415 478 38,000  Level FlightAware
07:32AM 57.6690 48.1990 242° Southwest 410 472 38,000  Level FlightAware
07:33AM 57.6150 48.0060 242° Southwest 406 467 38,000  Level FlightAware
07:33AM 57.5810 47.8840 243° Southwest 403 464 38,000  Level FlightAware
07:34AM 57.5480 47.7660 243° Southwest 400 460 38,000  Level FlightAware
07:35AM 57.5140 47.6480 242° Southwest 400 460 38,000  Level FlightAware
07:36AM 57.4720 47.4980 243° Southwest 398 458 38,000  Level FlightAware
07:36AM 57.4320 47.3620 241° Southwest 396 456 38,000  Level FlightAware
07:37AM 57.3980 47.2450 242° Southwest 398 458 38,000  Level FlightAware
07:38AM 57.3630 47.1250 242° Southwest 401 461 38,000  Level FlightAware
07:38AM 57.3240 46.9890 242° Southwest 404 465 38,000  Level FlightAware
07:39AM 57.2880 46.8680 241° Southwest 404 465 38,000  Level FlightAware
07:40AM 57.2470 46.7320 241° Southwest 405 466 38,000  Level FlightAware
07:40AM 57.2110 46.6080 242° Southwest 406 467 38,000  Level FlightAware
07:41AM 57.1690 46.4990 235° Southwest 426 490 38,000  Level FlightAware
07:42AM 57.0970 46.4000 217° Southwest 439 505 38,000  Level FlightAware
07:43AM 57.0270 46.3120 214° Southwest 440 506 38,000  Level FlightAware
07:43AM 56.9630 46.2310 215° Southwest 440 506 38,000  Level FlightAware
07:44AM 56.8860 46.1310 215° Southwest 440 506 38,000  Level FlightAware
07:45AM 56.8190 46.0460 215° Southwest 438 504 38,000  Level FlightAware
07:45AM 56.7490 45.9560 215° Southwest 436 502 38,000  Level FlightAware
07:46AM 56.6810 45.8710 214° Southwest 435 501 38,000  Level FlightAware
07:47AM 56.6050 45.7750 215° Southwest 434 499 38,000  Level FlightAware
07:47AM 56.5430 45.6980 214° Southwest 433 498 38,000  Level FlightAware
07:48AM 56.4730 45.6110 214° Southwest 432 497 38,000  Level FlightAware
07:49AM 56.4000 45.5200 215° Southwest 433 498 38,000  Level FlightAware
07:50AM 56.3340 45.4380 215° Southwest 432 497 38,000  Level FlightAware
07:50AM 56.2690 45.3580 214° Southwest 430 495 38,000  Level FlightAware
07:51AM 56.1940 45.2670 214° Southwest 429 494 38,000  Level FlightAware
07:52AM 56.1300 45.1880 215° Southwest 429 494 38,000  Level FlightAware
07:52AM 56.0560 45.0990 214° Southwest 426 490 38,000  Level FlightAware
07:53AM 55.9880 45.0330 209° Southwest 442 509 38,000  Level FlightAware
07:54AM 55.9050 45.0050 191° South 452 520 38,000  Level FlightAware
07:54AM 55.8140 44.9810 188° South 451 519 38,000  Level FlightAware
07:55AM 55.7290 44.9590 188° South 454 522 38,000  Level FlightAware
07:56AM 55.6360 44.9330 189° South 456 525 38,000  Level FlightAware
07:57AM 55.5520 44.9080 190° South 456 525 38,000  Level FlightAware
07:57AM 55.4730 44.8750 193° South 455 524 38,000  Level FlightAware
07:58AM 55.3810 44.8340 194° South 456 525 38,000  Level FlightAware
07:59AM 55.2990 44.7990 194° South 457 526 38,000  Level FlightAware
07:59AM 55.2060 44.7590 194° South 456 525 38,000  Level FlightAware
08:00AM 55.1240 44.7240 194° South 456 525 38,000  Level FlightAware
08:01AM 55.0430 44.6890 194° South 457 526 38,000  Level FlightAware
08:01AM 54.9510 44.6510 193° South 458 527 38,000  Level FlightAware
08:02AM 54.8670 44.6150 194° South 456 525 38,000  Level FlightAware
08:03AM 54.7970 44.5860 193° South 452 520 38,000  Level FlightAware
08:04AM 54.7020 44.5460 194° South 450 518 38,000  Level FlightAware
08:04AM 54.6230 44.5130 194° South 451 519 38,000  Level FlightAware
08:05AM 54.5220 44.4740 193° South 453 521 38,000  Level FlightAware
08:06AM 54.4400 44.4410 193° South 453 521 38,000  Level FlightAware
08:06AM 54.3670 44.4120 193° South 454 522 38,000  Level FlightAware
08:07AM 54.2670 44.3730 193° South 453 521 38,000  Level FlightAware
08:08AM 54.1860 44.3410 193° South 452 520 38,000  Level FlightAware
08:08AM 54.0940 44.3050 193° South 453 521 38,000  Level FlightAware
08:09AM 54.0120 44.2730 193° South 454 522 38,000  Level FlightAware
08:10AM 53.9210 44.2380 193° South 452 520 38,000  Level FlightAware
08:11AM 53.8390 44.2060 193° South 454 522 38,000  Level FlightAware
08:11AM 53.7580 44.1750 193° South 455 524 38,000  Level FlightAware
08:12AM 53.6660 44.1400 193° South 454 522 38,000  Level FlightAware
08:13AM 53.5870 44.0950 199° South 443 510 38,000  Level FlightAware
08:13AM 53.5120 44.0100 214° Southwest 439 505 38,000  Level FlightAware
08:14AM 53.4450 43.9310 215° Southwest 437 503 38,000  Level FlightAware
08:15AM 53.3790 43.8530 215° Southwest 437 503 38,000  Level FlightAware
08:15AM 53.3050 43.7670 215° Southwest 437 503 38,000  Level FlightAware
08:16AM 53.2380 43.6880 215° Southwest 437 503 38,000  Level FlightAware
08:17AM 53.1720 43.6110 215° Southwest 439 505 38,000  Level FlightAware
08:18AM 53.0980 43.5250 215° Southwest 438 504 38,000  Level FlightAware
08:18AM 53.0320 43.4480 215° Southwest 438 504 38,000  Level FlightAware
08:19AM 52.9640 43.3710 214° Southwest 439 505 38,000  Level FlightAware
08:20AM 52.8890 43.2850 215° Southwest 441 507 38,000  Level FlightAware
08:20AM 52.8220 43.2080 215° Southwest 443 510 38,000  Level FlightAware
08:21AM 52.7460 43.1220 214° Southwest 445 512 38,000  Level FlightAware
08:22AM 52.6780 43.0440 215° Southwest 448 516 38,000  Level FlightAware
08:22AM 52.6100 42.9680 214° Southwest 448 516 38,000  Level FlightAware
08:23AM 52.5370 42.8750 218° Southwest 440 506 38,000  Level FlightAware
08:24AM 52.5050 42.7790 241° Southwest 437 503 38,000  Level FlightAware
08:26AM 52.3574 42.5378 225° Southwest  Level Estimated
08:27AM 52.2752 42.4045 225° Southwest  Level Estimated
08:28AM 52.1929 42.2717 225° Southwest  Level Estimated
08:29AM 52.1104 42.1394 225° Southwest  Level Estimated
08:30AM 52.0277 42.0076 224° Southwest  Level Estimated
08:31AM 51.9449 41.8763 224° Southwest  Level Estimated
08:32AM 51.8620 41.7454 224° Southwest  Level Estimated
08:33AM 51.7789 41.6151 224° Southwest  Level Estimated
08:34AM 51.6956 41.4852 224° Southwest  Level Estimated
08:34AM 51.9660 40.9740 224° Southwest 440 506 38,000  Level FlightAware
08:35AM 51.9290 40.8560 243° Southwest 440 506 38,000  Level FlightAware
08:35AM 51.8920 40.7380 243° Southwest 442 509 38,000  Level FlightAware
08:36AM 51.8490 40.6020 243° Southwest 444 511 38,000  Level FlightAware
08:37AM 51.8120 40.4840 243° Southwest 445 512 38,000  Level FlightAware
08:37AM 51.7760 40.3710 243° Southwest 445 512 38,000  Level FlightAware
08:38AM 51.7210 40.1990 243° Southwest 445 512 38,000  Level FlightAware
08:39AM 51.6830 40.0960 239° Southwest 446 513 38,000  Level FlightAware
08:40AM 51.6420 39.9810 240° Southwest 446 513 38,000  Level FlightAware
08:40AM 51.6070 39.8830 240° Southwest 446 513 38,000  Level FlightAware
08:41AM 51.5720 39.7850 240° Southwest 446 513 38,000  Level FlightAware
08:42AM 51.5280 39.6630 240° Southwest 446 513 38,000  Level FlightAware
08:42AM 51.4930 39.5650 240° Southwest 446 513 38,000  Level FlightAware
08:43AM 51.4580 39.4680 240° Southwest 446 513 38,000  Level FlightAware
08:44AM 51.4230 39.3700 240° Southwest 446 513 38,000  Level FlightAware
08:44AM 51.3880 39.2730 240° Southwest 446 513 38,000  Level FlightAware
08:45AM 51.3440 39.1510 240° Southwest 446 513 38,000  Level FlightAware
08:46AM 51.3090 39.0540 240° Southwest 446 513 38,000  Level FlightAware
08:47AM 51.2730 38.9570 239° Southwest 446 513 38,000  Level FlightAware
08:47AM 51.2380 38.8600 240° Southwest 446 513 38,000  Level FlightAware
08:48AM 51.2030 38.7630 240° Southwest 446 513 38,000  Level FlightAware
08:49AM 51.0190 38.4500 227° Southwest 446 513 38,000  Level FlightAware
08:49AM 50.9720 38.3390 236° Southwest 447 514 38,000  Level FlightAware
08:50AM 50.9260 38.2300 236° Southwest 447 514 38,000  Level FlightAware
08:51AM 50.8870 38.1380 236° Southwest 447 514 38,000  Level FlightAware
08:52AM 50.8470 38.0450 236° Southwest 447 514 38,000  Level FlightAware
08:53AM 50.7980 37.9300 236° Southwest 447 514 38,000  Level FlightAware
08:53AM 50.7110 37.7280 236° Southwest 447 514 38,000  Level FlightAware
08:54AM 50.6600 37.6120 235° Southwest 448 516 38,000  Level FlightAware
08:55AM 50.6130 37.5030 236° Southwest 448 516 38,000  Level FlightAware
08:55AM 50.5620 37.3840 236° Southwest 450 518 38,000  Level FlightAware
08:56AM 50.5160 37.2800 235° Southwest 450 518 38,000  Level FlightAware
08:57AM 50.4640 37.1620 235° Southwest 452 520 38,000  Level FlightAware
08:57AM 50.4170 37.0540 236° Southwest 452 520 38,000  Level FlightAware
08:58AM 50.3620 36.9310 235° Southwest 453 521 38,000  Level FlightAware
08:59AM 50.3100 36.8230 233° Southwest 454 522 38,000  Level FlightAware
08:59AM 50.2580 36.7460 223° Southwest 455 524 38,000  Level FlightAware
09:00AM 50.1810 36.6530 218° Southwest 458 527 38,000  Level FlightAware
09:01AM 50.1020 36.5730 213° Southwest 459 528 38,000  Level FlightAware
09:02AM 50.0230 36.4930 213° Southwest 459 528 38,000  Level FlightAware
09:02AM 49.9610 36.4430 207° Southwest 459 528 38,000  Level FlightAware
09:03AM 49.8820 36.3630 213° Southwest 458 527 38,000  Level FlightAware
09:04AM 49.8040 36.2840 213° Southwest 458 527 38,000  Level FlightAware
09:04AM 49.7250 36.2040 213° Southwest 458 527 38,000  Level FlightAware
09:05AM 49.6460 36.1250 213° Southwest 459 528 38,000  Level FlightAware
09:06AM 49.5860 36.0670 212° Southwest 459 528 38,000  Level FlightAware
09:06AM 49.5040 35.9860 213° Southwest 460 529 38,000  Level FlightAware
09:07AM 49.4350 35.9180 213° Southwest 460 529 38,000  Level FlightAware
09:08AM 49.3550 35.8400 212° Southwest 460 529 38,000  Level FlightAware
09:09AM 49.2860 35.7720 213° Southwest 460 529 38,000  Level FlightAware
09:09AM 49.2040 35.6930 212° Southwest 460 529 38,000  Level FlightAware
09:10AM 49.1310 35.6220 212° Southwest 461 531 38,000  Level FlightAware
09:11AM 49.0520 35.5460 212° Southwest 462 532 38,000  Level FlightAware
09:11AM 48.9770 35.4740 212° Southwest 462 532 38,000  Level FlightAware
09:12AM 48.8940 35.3940 212° Southwest 463 533 38,000  Level FlightAware
09:13AM 48.8210 35.3250 212° Southwest 463 533 38,000  Level FlightAware
09:13AM 48.7590 35.2660 212° Southwest 464 534 38,000  Level FlightAware
09:14AM 48.6570 35.1680 212° Southwest 464 534 38,000  Level FlightAware
09:15AM 48.5590 35.0760 212° Southwest 465 535 38,000  Level FlightAware
09:16AM 48.4870 35.0090 212° Southwest 465 535 38,000  Level FlightAware
09:16AM 48.4220 34.9480 212° Southwest 467 537 38,000  Level FlightAware
09:17AM 48.3390 34.8700 212° Southwest 468 539 38,000  Level FlightAware
09:18AM 48.2580 34.7940 212° Southwest 468 539 38,000  Level FlightAware
09:19AM 48.1760 34.7180 212° Southwest 468 539 38,000  Level FlightAware
09:19AM 48.1160 34.6610 212° Southwest 468 539 38,000  Level FlightAware
09:20AM 48.0340 34.5860 211° Southwest 468 539 38,000  Level FlightAware
09:21AM 47.9530 34.5100 212° Southwest 468 539 38,000  Level FlightAware
09:21AM 47.8920 34.4530 212° Southwest 468 539 38,000  Level FlightAware
09:22AM 47.8110 34.3780 212° Southwest 468 539 38,000  Level FlightAware
09:23AM 47.7170 34.2990 209° Southwest 466 536 38,000  Level FlightAware
09:24AM 47.6340 34.2250 211° Southwest 467 537 38,000  Level FlightAware
09:24AM 47.5640 34.1610 212° Southwest 467 537 38,000  Level FlightAware
09:25AM 47.4850 34.0910 211° Southwest 467 537 38,000  Level FlightAware
09:26AM 47.4010 34.0160 211° Southwest 466 536 38,000  Level FlightAware
09:26AM 47.3290 33.9510 211° Southwest 465 535 38,000  Level FlightAware
09:27AM 47.2440 33.8760 211° Southwest 463 533 38,000  Level FlightAware
09:28AM 47.1720 33.8120 211° Southwest 462 532 38,000  Level FlightAware
09:28AM 47.0990 33.7480 211° Southwest 461 531 38,000  Level FlightAware
09:29AM 47.0180 33.6760 211° Southwest 460 529 38,000  Level FlightAware
09:30AM 46.9440 33.6110 211° Southwest 459 528 38,000  Level FlightAware
09:31AM 46.8710 33.5480 211° Southwest 459 528 38,000  Level FlightAware
09:31AM 46.7900 33.4780 211° Southwest 458 527 38,000  Level FlightAware
09:32AM 46.7070 33.4060 211° Southwest 464 534 38,000  Level FlightAware
09:33AM 46.6340 33.3430 211° Southwest 468 539 38,000  Level FlightAware
09:33AM 46.5580 33.2770 211° Southwest 470 541 38,000  Level FlightAware
09:34AM 46.4750 33.2060 211° Southwest 471 542 38,000  Level FlightAware
09:35AM 46.4000 33.1420 210° Southwest 471 542 38,000  Level FlightAware
09:35AM 46.3240 33.0770 211° Southwest 471 542 38,000  Level FlightAware
09:36AM 46.2410 33.0070 210° Southwest 469 540 38,000  Level FlightAware
09:37AM 46.1650 32.9420 211° Southwest 468 539 38,000  Level FlightAware
09:38AM 46.0820 32.8720 210° Southwest 467 537 38,000  Level FlightAware
09:38AM 46.0070 32.8090 210° Southwest 467 537 38,000  Level FlightAware
09:39AM 45.9220 32.7380 210° Southwest 467 537 38,000  Level FlightAware
09:40AM 45.8470 32.6760 210° Southwest 466 536 38,000  Level FlightAware
09:40AM 45.7650 32.6080 210° Southwest 467 537 38,000  Level FlightAware
09:41AM 45.6890 32.5450 210° Southwest 467 537 38,000  Level FlightAware
09:42AM 45.6060 32.4760 210° Southwest 466 536 38,000  Level FlightAware
09:43AM 45.5310 32.4150 210° Southwest 465 535 38,000  Level FlightAware
09:43AM 45.4560 32.3540 210° Southwest 466 536 38,000  Level FlightAware
09:44AM 45.3810 32.2920 210° Southwest 465 535 38,000  Level FlightAware
09:45AM 45.2980 32.2250 210° Southwest 465 535 38,000  Level FlightAware
09:45AM 45.2240 32.1660 209° Southwest 465 535 38,000  Level FlightAware
09:46AM 45.1480 32.1040 210° Southwest 464 534 38,000  Level FlightAware
09:47AM 45.0630 32.0360 209° Southwest 464 534 38,000  Level FlightAware
09:47AM 44.9900 31.9780 209° Southwest 465 535 38,000  Level FlightAware
09:48AM 44.9060 31.9100 210° Southwest 465 535 38,000  Level FlightAware
09:49AM 44.8300 31.8500 209° Southwest 464 534 38,000  Level FlightAware
09:49AM 44.7560 31.7920 209° Southwest 464 534 38,000  Level FlightAware
09:50AM 44.6730 31.7270 209° Southwest 466 536 38,000  Level FlightAware
09:51AM 44.5960 31.6660 209° Southwest 464 534 38,000  Level FlightAware
09:52AM 44.5120 31.6000 209° Southwest 457 526 38,000  Level FlightAware
09:52AM 44.4400 31.5440 209° Southwest 455 524 38,000  Level FlightAware
09:53AM 44.3570 31.4800 209° Southwest 454 522 38,000  Level FlightAware
09:54AM 44.2870 31.4250 209° Southwest 453 521 38,000  Level FlightAware
09:54AM 44.2150 31.3580 214° Southwest 452 520 38,000  Level FlightAware
09:55AM 44.1540 31.2810 222° Southwest 451 519 38,000  Level FlightAware
09:56AM 44.0830 31.1890 223° Southwest 450 518 38,000  Level FlightAware
09:57AM 44.0050 31.0890 223° Southwest 450 518 38,000  Level FlightAware
09:57AM 43.9320 30.9970 222° Southwest 449 517 38,000  Level FlightAware
09:58AM 43.8700 30.9180 223° Southwest 448 516 38,000  Level FlightAware
09:59AM 43.8130 30.8460 222° Southwest 447 514 38,000  Level FlightAware
09:59AM 43.7560 30.7750 222° Southwest 447 514 38,000  Level FlightAware
10:00AM 43.6860 30.6870 222° Southwest 447 514 38,000  Level FlightAware
10:01AM 43.6180 30.6030 222° Southwest 447 514 38,000  Level FlightAware
10:02AM 43.6170 30.6020 216° Southwest 448 516 38,000  Level FlightAware
10:03AM 43.4680 30.4190 222° Southwest 449 517 38,000  Level FlightAware
10:03AM 43.4020 30.3370 222° Southwest 450 518 38,000  Level FlightAware
10:04AM 43.3350 30.2550 222° Southwest 452 520 38,000  Level FlightAware
10:05AM 43.2720 30.1780 222° Southwest 453 521 38,000  Level FlightAware
10:05AM 43.2170 30.1110 222° Southwest 454 522 38,000  Level FlightAware
10:06AM 43.1490 30.0310 221° Southwest 454 522 38,000  Level FlightAware
10:07AM 43.0720 29.9350 222° Southwest 38,000  Level FlightAware
10:07AM 43.0160 29.8680 221° Southwest 38,000  Level FlightAware
10:08AM 42.9440 29.7830 221° Southwest 456 525 38,000 -379 Level FlightAware
10:09AM 42.8590 29.6790 222° Southwest 452 520 37,400 -1,482 Descending FlightAware
10:10AM 42.7850 29.5910 221° Southwest 452 520 35,900 -1,694 Descending FlightAware
10:10AM 42.7420 29.5390 222° Southwest 459 528 35,000 -1,976 Descending FlightAware
10:11AM 42.6510 29.4320 221° Southwest 467 537 33,100 -2,200 Descending FlightAware
10:12AM 42.5810 29.3490 221° Southwest 471 542 31,700 -1,950 Descending FlightAware
10:13AM 42.5160 29.2720 221° Southwest 474 545 30,500 -1,906 Descending FlightAware
10:13AM 42.4410 29.1830 221° Southwest 472 543 29,000 -2,025 Descending FlightAware
10:14AM 42.3830 29.1160 220° Southwest 456 525 27,800 -1,341 Descending FlightAware
10:15AM 42.3100 29.0310 221° Southwest 451 519 27,100 -1,867 Descending FlightAware
10:15AM 42.2320 28.9760 208° Southwest 432 497 25,000 -2,240 Descending FlightAware
10:16AM 42.1680 28.9500 197° South 451 519 24,300 -750 Descending FlightAware
10:17AM 42.0790 28.9140 197° South 423 487 24,000 -600 Descending FlightAware
10:17AM 42.0020 28.8830 197° South 402 463 23,400 -780 Descending FlightAware
10:18AM 41.9060 28.8440 197° South 390 449 22,700 -1,620 Descending FlightAware
10:19AM 41.8380 28.8160 197° South 353 406 20,700 -2,625 Descending FlightAware
10:20AM 41.7840 28.7940 197° South 341 392 19,200 -2,475 Descending FlightAware
10:20AM 41.7160 28.7600 200° South 340 391 17,400 -1,740 Descending FlightAware
10:21AM 41.6410 28.7140 205° Southwest 305 351 16,300 -1,513 Descending FlightAware
10:22AM 41.5610 28.6640 205° Southwest 300 345 14,500 -1,389 Descending FlightAware
10:23AM 41.5200 28.6380 205° Southwest 300 345 14,100 -1,875 Descending FlightAware
10:24AM 41.4610 28.6020 205° Southwest 304 350 12,000 -2,320 Descending FlightAware
10:24AM 41.4190 28.5810 201° Southwest 292 336 11,200 -1,400 Descending FlightAware
10:25AM 41.3820 28.5910 169° South 294 338 10,600 -1,200 Descending FlightAware
10:25AM 41.3640 28.6130 137° Southeast 296 341 10,300 -1,350 Descending FlightAware
10:25AM 41.3410 28.6490 130° Southeast 302 348 9,700 -1,636 Descending FlightAware
10:26AM 41.3180 28.6870 129° Southeast 301 346 8,800 -1,440 Descending FlightAware
10:26AM 41.2970 28.7200 130° Southeast 294 338 8,500 -565 Descending FlightAware
10:27AM 41.2460 28.8000 130° Southeast 255 293 8,000 -353 Descending FlightAware
10:28AM 41.2310 28.8230 131° Southeast 254 292 8,000  Level FlightAware
10:28AM 41.1980 28.8740 131° Southeast 255 293 8,000  Level FlightAware
10:29AM 41.1840 28.8970 129° Southeast 255 293 8,000 -450 Level FlightAware
10:29AM 41.1680 28.9210 132° Southeast 253 291 7,700 -900 Descending FlightAware
10:29AM 41.1580 28.9520 113° Southeast 258 297 7,400 -750 Descending FlightAware
10:30AM 41.1620 28.9820 80° East 257 296 7,200 -720 Descending FlightAware
10:30AM 41.1650 28.9890 60° Northeast 257 296 7,100 -200 Descending FlightAware
10:30AM 41.1770 29.0200 63° Northeast 257 296 7,100 -933 Level FlightAware
10:30AM 41.1940 29.0510 54° Northeast 249 287 6,400 -1,309 Descending FlightAware
10:31AM 41.2130 29.0910 58° Northeast 252 290 5,900 -900 Descending FlightAware
10:31AM 41.2290 29.1260 59° Northeast 246 283 5,500 -960 Descending FlightAware
10:32AM 41.2410 29.1600 65° Northeast 246 283 5,100 -480 Descending FlightAware
10:32AM 41.2460 29.1940 79° East 246 283 5,100 -133 Level FlightAware
10:33AM 41.2240 29.2250 133° Southeast 253 291 5,000 -171 Descending FlightAware
10:33AM 41.2100 29.2350 152° Southeast 254 292 5,000  Level FlightAware
10:33AM 41.1910 29.2360 178° South 251 289 5,000  Level FlightAware
10:33AM 41.1690 29.2250 201° Southwest 224 258 5,000 -133 Level FlightAware
10:34AM 41.1480 29.2040 217° Southwest 215 247 4,900 -360 Descending FlightAware
10:34AM 41.1350 29.1770 237° Southwest 224 258 4,700 -545 Descending FlightAware
10:35AM 41.1190 29.1420 239° Southwest 221 254 4,400 -667 Descending FlightAware
10:35AM 41.1110 29.1240 239° Southwest 223 257 4,200 -764 Descending FlightAware
10:36AM 41.0880 29.0760 238° Southwest 219 252 3,700 -738 Descending FlightAware
10:36AM 41.0770 29.0490 242° Southwest 209 241 3,400 -450 Descending FlightAware
10:36AM 41.0710 29.0360 239° Southwest 198 228 3,400 -133 Level FlightAware
10:37AM 41.0560 29.0040 238° Southwest 173 199 3,300 -655 Descending FlightAware
10:37AM 41.0460 28.9810 240° Southwest 170 196 2,800 -1,091 Descending FlightAware
10:38AM 41.0340 28.9550 239° Southwest 162 186 2,300 -545 Descending FlightAware
10:38AM 41.0250 28.9370 236° Southwest 162 186 2,300 -873 Level FlightAware
10:39AM 41.0120 28.9110 236° Southwest 162 186 1,500 -873 Descending FlightAware
10:39AM 41.0030 28.8920 238° Southwest 162 186 1,500 -840 Level FlightAware
10:40AM 40.9770 28.8340 239° Southwest 143 165 100 -840 Descending FlightAware
10:41AM 40.9700 28.8180 240° Southwest 143 165 100  Level FlightAware
10:43AM 40.9769 28.8211 19° North  Level Estimated

Login

Don't have an account? Register now (free) for customized features, flight alerts, and more!